Time;durP1;ratioP1;P1;durP2;ratioP2;P2;SDS_P1;SDS_P2;PMS_P1;PMS_P2;Temp;Humidity;BMP_temperature;BMP_pressure;BME280_temperature;BME280_humidity;BME280_pressure;Samples;Min_cycle;Max_cycle;Signal;HPM_P1;HPM_P2
2021/12/01 00:01:04;;;;;;;24.33;22.93;;;;;;;-141.02;100.00;55844.97;5135592;27;20224;-72
2021/12/01 00:03:33;;;;;;;24.73;23.33;;;;;;;-141.02;100.00;55844.97;5137236;27;20253;-72
2021/12/01 00:06:00;;;;;;;24.43;23.03;;;;;;;-141.02;100.00;55844.97;5136882;27;20192;-72
2021/12/01 00:08:27;;;;;;;25.07;23.57;;;;;;;-141.02;100.00;55844.97;5137180;27;20386;-72
2021/12/01 00:10:54;;;;;;;24.97;23.57;;;;;;;-141.02;100.00;55844.97;5137162;27;20281;-72
2021/12/01 00:13:22;;;;;;;21.70;20.53;;;;;;;-141.02;100.00;55844.97;5137100;27;20253;-72
2021/12/01 00:15:51;;;;;;;26.63;25.00;;;;;;;-141.02;100.00;55844.97;5136649;27;20245;-72
2021/12/01 00:18:18;;;;;;;24.30;23.00;;;;;;;-141.02;100.00;55844.97;5136678;27;20227;-72
2021/12/01 00:20:47;;;;;;;27.07;25.57;;;;;;;-141.02;100.00;55844.97;5137654;27;20621;-72
2021/12/01 00:23:15;;;;;;;23.37;22.07;;;;;;;-141.02;100.00;55844.97;5136924;27;20220;-71
2021/12/01 00:25:42;;;;;;;21.67;20.47;;;;;;;-141.02;100.00;55844.97;5136832;27;20228;-72
2021/12/01 00:28:10;;;;;;;21.40;20.20;;;;;;;-141.02;100.00;55844.97;5136712;27;20245;-72
2021/12/01 00:30:40;;;;;;;21.83;20.63;;;;;;;-141.02;100.00;55844.97;5136418;27;20196;-71
2021/12/01 00:33:08;;;;;;;21.10;20.00;;;;;;;-141.02;100.00;55844.97;5136679;27;20201;-72
2021/12/01 00:35:36;;;;;;;23.90;22.50;;;;;;;-141.02;100.00;55844.97;5136720;27;20317;-71
2021/12/01 00:38:05;;;;;;;22.20;20.90;;;;;;;-141.02;100.00;55844.97;5137063;27;20288;-72
2021/12/01 00:40:32;;;;;;;22.90;21.60;;;;;;;-141.02;100.00;55844.97;5136572;27;20245;-71
2021/12/01 00:42:59;;;;;;;22.97;21.70;;;;;;;-141.02;100.00;55844.97;5136125;27;20223;-72
2021/12/01 00:45:28;;;;;;;23.50;22.20;;;;;;;-141.02;100.00;55844.97;5136191;27;20226;-71
2021/12/01 00:47:56;;;;;;;23.10;21.80;;;;;;;-141.02;100.00;55844.97;5136481;27;20275;-71
2021/12/01 00:50:25;;;;;;;23.60;22.40;;;;;;;-141.02;100.00;55844.97;5135950;27;20305;-71
2021/12/01 00:52:53;;;;;;;27.83;25.00;;;;;;;-141.02;100.00;55844.97;5136311;27;20196;-72
2021/12/01 00:55:22;;;;;;;24.07;22.77;;;;;;;-141.02;100.00;55844.97;5136248;27;20197;-71
2021/12/01 00:57:51;;;;;;;24.47;23.17;;;;;;;-141.02;100.00;55844.97;5135881;27;20654;-72
2021/12/01 01:00:20;;;;;;;22.20;21.10;;;;;;;-141.02;100.00;55844.97;5136245;27;20299;-72
2021/12/01 01:02:48;;;;;;;21.70;20.60;;;;;;;-141.02;100.00;55844.97;5135760;27;20224;-72
2021/12/01 01:05:16;;;;;;;23.27;22.07;;;;;;;-141.02;100.00;55844.97;5136682;27;20249;-73
2021/12/01 01:07:43;;;;;;;23.90;22.70;;;;;;;-141.02;100.00;55844.97;5136067;27;20196;-72
2021/12/01 01:10:29;;;;;;;23.77;22.47;;;;;;;-141.02;100.00;55844.97;5135689;27;20726;-72
2021/12/01 01:18:33;;;;;;;23.33;22.03;;;;;;;-141.02;100.00;55844.97;5135949;27;20180;-72
2021/12/01 01:21:00;;;;;;;23.93;22.53;;;;;;;-141.02;100.00;55844.97;5135545;27;20283;-72
2021/12/01 01:23:29;;;;;;;22.43;21.33;;;;;;;-141.02;100.00;55844.97;5135786;27;20256;-72
2021/12/01 01:25:56;;;;;;;21.30;20.10;;;;;;;-141.02;100.00;55844.97;5135621;27;20197;-72
2021/12/01 01:28:25;;;;;;;22.47;21.17;;;;;;;-141.02;100.00;87602.75;5135356;27;20737;-72
2021/12/01 01:30:55;;;;;;;22.27;20.97;;;;;;;-141.02;100.00;55844.97;5135325;27;20201;-72
2021/12/01 01:33:23;;;;;;;22.23;21.00;;;;;;;-141.02;100.00;55844.97;5135187;27;20222;-72
2021/12/01 01:35:51;;;;;;;24.37;22.97;;;;;;;-141.02;100.00;55844.97;5135521;27;20227;-72
2021/12/01 01:38:19;;;;;;;24.13;22.83;;;;;;;-141.02;100.00;55844.97;5135105;27;20201;-71
2021/12/01 01:40:46;;;;;;;21.50;20.40;;;;;;;-141.02;100.00;55844.97;5135429;27;20193;-71
2021/12/01 01:43:14;;;;;;;21.97;20.77;;;;;;;-141.02;100.00;55844.97;5134983;27;20227;-72
2021/12/01 01:45:42;;;;;;;23.00;21.77;;;;;;;-141.02;100.00;55844.97;5135055;27;20189;-71
2021/12/01 01:48:11;;;;;;;24.50;23.00;;;;;;;-141.02;100.00;55844.97;5134929;27;20222;-71
2021/12/01 01:50:42;;;;;;;24.33;23.03;;;;;;;-141.02;100.00;55844.97;5134812;27;20368;-72
2021/12/01 01:53:12;;;;;;;24.57;23.17;;;;;;;-141.02;100.00;55844.97;5135172;27;20196;-72
2021/12/01 01:55:42;;;;;;;25.23;23.83;;;;;;;-141.02;100.00;55844.97;5135136;27;20196;-71
2021/12/01 01:58:10;;;;;;;23.93;22.63;;;;;;;-141.02;100.00;55844.97;5135046;27;20230;-72
2021/12/01 02:00:45;;;;;;;22.87;21.57;;;;;;;-141.02;100.00;55844.97;5135041;27;20225;-71
2021/12/01 02:03:14;;;;;;;25.47;24.00;;;;;;;-141.02;100.00;55844.97;5134617;27;20299;-71
2021/12/01 02:05:42;;;;;;;25.23;23.73;;;;;;;-141.02;100.00;55844.97;5134883;27;20196;-71
2021/12/01 02:08:16;;;;;;;22.07;20.87;;;;;;;-141.02;100.00;55844.97;5134805;27;20245;-71
2021/12/01 02:10:46;;;;;;;21.70;20.50;;;;;;;-141.02;100.00;55844.97;5134503;27;20650;-71
2021/12/01 02:13:13;;;;;;;22.50;21.30;;;;;;;-141.02;100.00;87528.84;5134803;27;20195;-71
2021/12/01 02:15:40;;;;;;;22.07;20.87;;;;;;;-141.02;100.00;87540.50;5134385;27;20548;-72
2021/12/01 02:18:08;;;;;;;23.37;22.10;;;;;;;-141.02;100.00;55844.97;5134377;27;20227;-71
2021/12/01 02:20:36;;;;;;;22.67;21.47;;;;;;;-141.02;100.00;55844.97;5134588;27;20188;-71
2021/12/01 02:23:03;;;;;;;23.60;22.30;;;;;;;-141.02;100.00;55844.97;5134110;27;20224;-71
2021/12/01 02:25:30;;;;;;;23.43;22.13;;;;;;;-141.02;100.00;55844.97;5134549;27;20245;-71
2021/12/01 02:27:57;;;;;;;23.67;22.37;;;;;;;-141.02;100.00;55844.97;5134134;27;20619;-72
2021/12/01 02:30:25;;;;;;;22.33;21.13;;;;;;;-141.02;100.00;55844.97;5134117;27;20625;-71
2021/12/01 02:32:52;;;;;;;23.47;22.17;;;;;;;-141.02;100.00;55844.97;5134347;27;20585;-72
2021/12/01 02:35:19;;;;;;;24.47;23.17;;;;;;;-141.02;100.00;55844.97;5134234;27;20193;-71
2021/12/01 02:37:48;;;;;;;22.77;21.57;;;;;;;-141.02;100.00;55844.97;5134286;27;20204;-72
2021/12/01 02:40:15;;;;;;;22.00;20.80;;;;;;;-141.02;100.00;55844.97;5134212;27;20201;-71
2021/12/01 02:42:42;;;;;;;22.87;21.57;;;;;;;-141.02;100.00;55844.97;5133796;27;20224;-71
2021/12/01 02:45:10;;;;;;;20.53;19.33;;;;;;;-141.02;100.00;55844.97;5134085;27;20192;-72
2021/12/01 02:47:37;;;;;;;21.80;20.60;;;;;;;-141.02;100.00;55844.97;5134082;27;20279;-72
2021/12/01 02:50:05;;;;;;;22.03;20.83;;;;;;;-141.02;100.00;55844.97;5133665;27;20228;-71
2021/12/01 02:52:35;;;;;;;21.40;20.20;;;;;;;-141.02;100.00;55844.97;5133989;27;20200;-72
2021/12/01 02:55:05;;;;;;;21.37;20.27;;;;;;;-141.02;100.00;55844.97;5133704;27;20269;-71
2021/12/01 02:57:42;;;;;;;21.10;19.90;;;;;;;-141.02;100.00;55844.97;5133927;27;20207;-71
2021/12/01 03:00:11;;;;;;;19.80;18.70;;;;;;;-141.02;100.00;55844.97;5133662;27;20245;-72
2021/12/01 03:02:39;;;;;;;21.47;20.37;;;;;;;-141.02;100.00;55844.97;5133407;27;20314;-71
2021/12/01 03:05:08;;;;;;;21.33;20.23;;;;;;;-141.02;100.00;55844.97;5133573;27;20196;-71
2021/12/01 03:07:35;;;;;;;21.40;20.10;;;;;;;-141.02;100.00;55844.97;5133740;27;20196;-72
2021/12/01 03:10:05;;;;;;;21.07;19.77;;;;;;;-141.02;100.00;55844.97;5133811;27;20300;-71
2021/12/01 03:12:35;;;;;;;22.23;21.03;;;;;;;-141.02;100.00;55844.97;5133811;27;20185;-72
2021/12/01 03:15:03;;;;;;;21.17;19.97;;;;;;;-141.02;100.00;55844.97;5133683;27;20188;-71
2021/12/01 03:17:32;;;;;;;18.93;17.93;;;;;;;-141.02;100.00;55844.97;5133627;27;20189;-71
2021/12/01 03:20:00;;;;;;;21.30;20.23;;;;;;;-141.02;100.00;55844.97;5133188;27;20226;-71
2021/12/01 03:22:27;;;;;;;21.90;20.80;;;;;;;-141.02;100.00;55844.97;5133138;27;20274;-71
2021/12/01 03:24:55;;;;;;;24.07;22.77;;;;;;;-141.02;100.00;55844.97;5133163;27;20200;-70
2021/12/01 03:27:24;;;;;;;21.70;20.60;;;;;;;-141.02;100.00;55844.97;5133476;27;20657;-71
2021/12/01 03:29:51;;;;;;;20.37;19.37;;;;;;;-141.02;100.00;55844.97;5133478;27;20224;-71
2021/12/01 03:32:20;;;;;;;21.20;20.10;;;;;;;-141.02;100.00;55844.97;5133108;27;20197;-71
2021/12/01 03:34:47;;;;;;;20.57;19.37;;;;;;;-141.02;100.00;55844.97;5133225;27;20196;-71
2021/12/01 03:37:14;;;;;;;21.87;20.77;;;;;;;-141.02;100.00;55844.97;5133315;27;20269;-71
2021/12/01 03:39:41;;;;;;;23.47;22.17;;;;;;;-141.02;100.00;55844.97;5133340;27;20731;-71
2021/12/01 03:42:08;;;;;;;25.10;23.70;;;;;;;-141.02;100.00;55844.97;5133231;27;20272;-71
2021/12/01 03:44:37;;;;;;;21.00;19.90;;;;;;;-141.02;100.00;55844.97;5133310;28;20227;-71
2021/12/01 03:47:04;;;;;;;18.77;17.77;;;;;;;-141.02;100.00;55844.97;5133260;27;20222;-71
2021/12/01 03:49:31;;;;;;;19.97;18.77;;;;;;;-141.02;100.00;55844.97;5132717;28;20277;-71
2021/12/01 03:51:59;;;;;;;19.77;18.67;;;;;;;-141.02;100.00;55844.97;5133690;28;20695;-70
2021/12/01 03:54:26;;;;;;;20.50;19.30;;;;;;;-141.02;100.00;55844.97;5133117;28;20204;-71
2021/12/01 03:56:53;;;;;;;18.30;17.20;;;;;;;-141.02;100.00;55844.97;5132880;28;20659;-71
2021/12/01 03:59:20;;;;;;;17.63;16.63;;;;;;;-141.02;100.00;55844.97;5133141;27;20201;-71
2021/12/01 04:01:48;;;;;;;20.33;18.93;;;;;;;-141.02;100.00;55844.97;5132709;28;20628;-70
2021/12/01 04:04:15;;;;;;;20.50;19.30;;;;;;;-141.02;100.00;55844.97;5132766;28;20677;-71
2021/12/01 04:06:42;;;;;;;21.77;20.27;;;;;;;-141.02;100.00;55844.97;5132730;27;20193;-70
2021/12/01 04:09:10;;;;;;;19.47;18.27;;;;;;;-141.02;100.00;55844.97;5133041;28;20200;-71
2021/12/01 04:11:37;;;;;;;21.13;19.83;;;;;;;-141.02;100.00;55844.97;5132626;28;20280;-71
2021/12/01 04:14:05;;;;;;;21.13;19.93;;;;;;;-141.02;100.00;55844.97;5132933;28;20249;-70
2021/12/01 04:16:32;;;;;;;17.90;16.90;;;;;;;-141.02;100.00;55844.97;5132984;27;20196;-70
2021/12/01 04:19:00;;;;;;;21.03;19.93;;;;;;;-141.02;100.00;55844.97;5132861;28;20242;-71
2021/12/01 04:21:28;;;;;;;21.17;20.07;;;;;;;-141.02;100.00;55844.97;5132670;27;20241;-71
2021/12/01 04:23:56;;;;;;;20.80;19.67;;;;;;;-141.02;100.00;55844.97;5132872;27;20228;-70
2021/12/01 04:26:26;;;;;;;19.63;18.63;;;;;;;-141.02;100.00;55844.97;5132603;27;20188;-70
2021/12/01 04:28:55;;;;;;;18.40;17.50;;;;;;;-141.02;100.00;55844.97;5132796;28;20180;-70
2021/12/01 04:31:22;;;;;;;19.40;18.40;;;;;;;-141.02;100.00;55844.97;5132577;27;20192;-71
2021/12/01 04:33:49;;;;;;;21.43;20.33;;;;;;;-141.02;100.00;55844.97;5132796;28;20265;-71
2021/12/01 04:36:18;;;;;;;20.50;19.47;;;;;;;-141.02;100.00;55844.97;5132795;28;20197;-70
2021/12/01 04:38:46;;;;;;;20.33;19.33;;;;;;;-141.02;100.00;55844.97;5132417;28;20666;-70
2021/12/01 04:41:14;;;;;;;21.73;20.73;;;;;;;-141.02;100.00;55844.97;5132419;27;20249;-70
2021/12/01 04:43:41;;;;;;;20.83;19.83;;;;;;;-141.02;100.00;55844.97;5132616;28;20323;-70
2021/12/01 04:46:08;;;;;;;20.87;19.87;;;;;;;-141.02;100.00;55844.97;5132711;27;20666;-71
2021/12/01 04:48:36;;;;;;;18.10;17.20;;;;;;;-141.02;100.00;55844.97;5135929;27;20192;-70
2021/12/01 04:51:03;;;;;;;18.83;17.73;;;;;;;-141.02;100.00;55844.97;5136151;27;20216;-70
2021/12/01 04:53:32;;;;;;;18.83;17.93;;;;;;;-141.02;100.00;55844.97;5136307;27;20204;-70
2021/12/01 04:56:01;;;;;;;18.30;17.30;;;;;;;-141.02;100.00;55844.97;5136277;27;20192;-71
2021/12/01 04:58:28;;;;;;;18.67;17.67;;;;;;;-141.02;100.00;55844.97;5136217;27;20236;-70
2021/12/01 05:00:58;;;;;;;20.07;19.17;;;;;;;-141.02;100.00;55844.97;5136154;27;20665;-70
2021/12/01 05:03:25;;;;;;;19.60;18.60;;;;;;;-141.02;100.00;55844.97;5135700;27;20228;-71
2021/12/01 05:05:52;;;;;;;19.80;18.90;;;;;;;-141.02;100.00;55844.97;5136089;27;20200;-71
2021/12/01 05:08:20;;;;;;;19.20;18.20;;;;;;;-141.02;100.00;55844.97;5135723;27;20260;-70
2021/12/01 05:10:49;;;;;;;20.17;19.17;;;;;;;-141.02;100.00;55844.97;5135702;27;20235;-70
2021/12/01 05:13:16;;;;;;;19.17;18.27;;;;;;;-141.02;100.00;55844.97;5135684;27;20222;-70
2021/12/01 05:15:43;;;;;;;18.30;17.40;;;;;;;-141.02;100.00;55844.97;5135586;27;20249;-71
2021/12/01 05:18:10;;;;;;;21.13;20.13;;;;;;;-141.02;100.00;55844.97;5135885;27;20200;-70
2021/12/01 05:20:39;;;;;;;19.13;18.03;;;;;;;-141.02;100.00;55844.97;5135835;27;20188;-70
2021/12/01 05:23:06;;;;;;;20.00;19.03;;;;;;;-141.02;100.00;55844.97;5135336;27;20352;-70
2021/12/01 05:25:34;;;;;;;19.20;18.30;;;;;;;-141.02;100.00;55844.97;5135752;27;20227;-70
2021/12/01 05:28:02;;;;;;;19.67;18.57;;;;;;;-141.02;100.00;55844.97;5135691;27;20193;-70
2021/12/01 05:30:29;;;;;;;19.57;18.47;;;;;;;-141.02;100.00;55844.97;5135646;27;20223;-70
2021/12/01 05:32:57;;;;;;;19.20;18.10;;;;;;;-141.02;100.00;55844.97;5135300;27;20224;-70
2021/12/01 05:35:24;;;;;;;17.37;16.47;;;;;;;-141.02;100.00;55844.97;5135206;27;20249;-70
2021/12/01 05:37:51;;;;;;;18.50;17.50;;;;;;;-141.02;100.00;55844.97;5135182;27;20688;-70
2021/12/01 05:40:18;;;;;;;18.20;17.30;;;;;;;-141.02;100.00;55844.97;5135052;27;20561;-70
2021/12/01 05:42:45;;;;;;;20.00;18.90;;;;;;;-141.02;100.00;55844.97;5135115;27;20220;-70
2021/12/01 05:45:14;;;;;;;18.63;17.63;;;;;;;-141.02;100.00;55844.97;5135254;27;20635;-70
2021/12/01 05:47:41;;;;;;;19.60;18.70;;;;;;;-141.02;100.00;55844.97;5135306;27;20274;-71
2021/12/01 05:50:09;;;;;;;20.67;19.57;;;;;;;-141.02;100.00;55844.97;5134743;27;20281;-71
2021/12/01 05:52:36;;;;;;;19.20;18.30;;;;;;;-141.02;100.00;55844.97;5135241;27;20203;-69
2021/12/01 05:55:05;;;;;;;19.37;18.47;;;;;;;-141.02;100.00;55844.97;5134867;27;20617;-71
2021/12/01 05:57:32;;;;;;;18.33;17.43;;;;;;;-141.02;100.00;55844.97;5135025;27;20235;-71
2021/12/01 05:59:59;;;;;;;19.30;18.40;;;;;;;-141.02;100.00;55844.97;5134810;27;20232;-70
2021/12/01 06:02:28;;;;;;;17.97;17.07;;;;;;;-141.02;100.00;55844.97;5134602;27;20193;-71
2021/12/01 06:04:55;;;;;;;21.13;20.13;;;;;;;-141.02;100.00;55844.97;5134975;27;20610;-70
2021/12/01 06:07:22;;;;;;;20.43;19.53;;;;;;;-141.02;100.00;55844.97;5134582;27;20226;-70
2021/12/01 06:09:49;;;;;;;21.33;20.40;;;;;;;-141.02;100.00;55844.97;5134781;27;20235;-71
2021/12/01 06:12:17;;;;;;;21.97;20.97;;;;;;;-141.02;100.00;55844.97;5134838;27;20196;-70
2021/12/01 06:14:44;;;;;;;20.70;19.70;;;;;;;-141.02;100.00;55844.97;5134368;27;20636;-70
2021/12/01 06:17:12;;;;;;;22.53;21.50;;;;;;;-141.02;100.00;55844.97;5134740;27;20204;-70
2021/12/01 06:19:41;;;;;;;22.63;21.63;;;;;;;-141.02;100.00;55844.97;5134408;27;20193;-70
2021/12/01 06:22:08;;;;;;;22.30;21.30;;;;;;;-141.02;100.00;55844.97;5134370;27;20188;-70
2021/12/01 06:24:36;;;;;;;23.77;22.57;;;;;;;-141.02;100.00;55844.97;5134514;27;20314;-70
2021/12/01 06:27:04;;;;;;;22.33;21.33;;;;;;;-141.02;100.00;55844.97;5134142;27;20195;-70
2021/12/01 06:29:31;;;;;;;22.40;21.40;;;;;;;-141.02;100.00;55844.97;5134156;27;20218;-70
2021/12/01 06:31:58;;;;;;;23.77;22.77;;;;;;;-141.02;100.00;55844.97;5134447;27;20192;-70
2021/12/01 06:34:25;;;;;;;19.77;18.87;;;;;;;-141.02;100.00;55844.97;5134202;27;20222;-70
2021/12/01 06:36:53;;;;;;;20.43;19.43;;;;;;;-141.02;100.00;55844.97;5134291;27;20218;-70
2021/12/01 06:39:20;;;;;;;21.43;20.43;;;;;;;-141.02;100.00;55844.97;5133984;27;20195;-70
2021/12/01 06:41:47;;;;;;;24.60;23.30;;;;;;;-141.02;100.00;55844.97;5134224;27;20224;-70
2021/12/01 06:44:15;;;;;;;20.77;19.77;;;;;;;-141.02;100.00;55844.97;5134097;27;20578;-70
2021/12/01 06:46:42;;;;;;;20.27;19.17;;;;;;;-141.02;100.00;55844.97;5134154;27;20667;-70
2021/12/01 06:49:09;;;;;;;21.00;19.70;;;;;;;-141.02;100.00;55844.97;5133810;27;20260;-70
2021/12/01 06:51:36;;;;;;;21.73;20.43;;;;;;;-141.02;100.00;55844.97;5134065;27;20543;-70
2021/12/01 06:54:05;;;;;;;20.43;19.23;;;;;;;-141.02;100.00;55844.97;5134021;27;20196;-70
2021/12/01 06:56:32;;;;;;;19.03;17.93;;;;;;;-141.02;100.00;55844.97;5133922;27;20193;-70
2021/12/01 06:58:59;;;;;;;22.17;20.87;;;;;;;-141.02;100.00;55844.97;5134004;27;20192;-69
2021/12/01 07:01:26;;;;;;;20.70;19.60;;;;;;;-141.02;100.00;55844.97;5133791;27;20592;-70
2021/12/01 07:03:53;;;;;;;20.97;19.57;;;;;;;-141.02;100.00;55844.97;5133787;27;20232;-70
2021/12/01 07:06:20;;;;;;;20.57;19.17;;;;;;;-141.02;100.00;55844.97;5133966;27;20563;-70
2021/12/01 07:08:48;;;;;;;21.23;19.93;;;;;;;-141.02;100.00;55844.97;5133480;27;20275;-70
2021/12/01 07:11:16;;;;;;;21.50;20.10;;;;;;;-141.02;100.00;55844.97;5133681;27;20192;-70
2021/12/01 07:13:43;;;;;;;23.10;21.80;;;;;;;-141.02;100.00;55844.97;5133715;27;20200;-70
2021/12/01 07:16:10;;;;;;;25.03;23.63;;;;;;;-141.02;100.00;55844.97;5133379;27;20666;-71
2021/12/01 07:18:37;;;;;;;25.13;23.73;;;;;;;-141.02;100.00;55844.97;5133612;27;20666;-70
2021/12/01 07:21:04;;;;;;;23.37;22.07;;;;;;;-141.02;100.00;55844.97;5133577;27;20189;-71
2021/12/01 07:23:32;;;;;;;23.23;21.93;;;;;;;-141.02;100.00;55844.97;5133982;27;20235;-71
2021/12/01 07:25:59;;;;;;;22.93;21.63;;;;;;;-141.02;100.00;55844.97;5133173;27;20195;-70
2021/12/01 07:28:27;;;;;;;23.10;21.80;;;;;;;-141.02;100.00;55844.97;5133447;27;20192;-70
2021/12/01 07:30:54;;;;;;;22.50;21.20;;;;;;;-141.02;100.00;55844.97;5133057;27;20193;-71
2021/12/01 07:33:21;;;;;;;22.90;21.53;;;;;;;-141.02;100.00;55844.97;5133126;27;20223;-71
2021/12/01 07:35:48;;;;;;;24.33;22.93;;;;;;;-141.02;100.00;55844.97;5133096;27;20287;-70
2021/12/01 07:38:15;;;;;;;28.77;26.97;;;;;;;-141.02;100.00;55844.97;5133380;27;20253;-71
2021/12/01 07:40:42;;;;;;;27.10;25.30;;;;;;;-141.02;100.00;55844.97;5133106;27;20193;-71
2021/12/01 07:43:10;;;;;;;26.07;24.40;;;;;;;-141.02;100.00;55844.97;5133203;28;20280;-71
2021/12/01 07:45:42;;;;;;;26.97;25.37;;;;;;;-141.02;100.00;55844.97;5133010;27;20188;-72
2021/12/01 07:48:10;;;;;;;26.13;24.43;;;;;;;-141.02;100.00;55844.97;5134117;28;20271;-72
2021/12/01 07:50:37;;;;;;;24.97;23.47;;;;;;;-141.02;100.00;55844.97;5132686;28;20602;-71
2021/12/01 07:53:04;;;;;;;25.77;24.07;;;;;;;-141.02;100.00;55844.97;5133243;28;20296;-72
2021/12/01 07:55:31;;;;;;;25.63;24.13;;;;;;;-141.02;100.00;55844.97;5133168;27;20197;-71
2021/12/01 07:57:58;;;;;;;25.47;23.97;;;;;;;-141.02;100.00;55844.97;5133203;27;20201;-71
2021/12/01 08:00:26;;;;;;;24.57;23.17;;;;;;;-141.02;100.00;55844.97;5132836;27;20203;-71
2021/12/01 08:02:55;;;;;;;22.40;21.10;;;;;;;-141.02;100.00;55844.97;5132763;28;20253;-71
2021/12/01 08:05:22;;;;;;;20.90;19.70;;;;;;;-141.02;100.00;55844.97;5132780;27;20705;-71
2021/12/01 08:07:50;;;;;;;21.93;20.67;;;;;;;-141.02;100.00;55844.97;5132756;28;20666;-71
2021/12/01 08:10:18;;;;;;;21.80;20.60;;;;;;;-141.02;100.00;55844.97;5132730;28;20193;-72
2021/12/01 08:12:45;;;;;;;24.33;22.93;;;;;;;-141.02;100.00;55844.97;5132636;28;20192;-71
2021/12/01 08:15:12;;;;;;;24.60;23.20;;;;;;;-141.02;100.00;55844.97;5132976;27;20662;-71
2021/12/01 08:17:39;;;;;;;23.17;21.87;;;;;;;-141.02;100.00;55844.97;5132654;28;20193;-71
2021/12/01 08:20:09;;;;;;;24.20;22.90;;;;;;;-141.02;100.00;55844.97;5132689;27;20692;-72
2021/12/01 08:22:36;;;;;;;24.27;22.97;;;;;;;-141.02;100.00;55844.97;5135764;27;20196;-71
2021/12/01 08:25:04;;;;;;;24.33;23.03;;;;;;;-141.02;100.00;55844.97;5136818;27;20762;-72
2021/12/01 08:27:32;;;;;;;23.93;22.63;;;;;;;-141.02;100.00;55844.97;5136596;27;20196;-72
2021/12/01 08:29:59;;;;;;;24.37;23.07;;;;;;;-141.02;100.00;55844.97;5136519;27;20666;-72
2021/12/01 08:32:26;;;;;;;23.33;22.23;;;;;;;-141.02;100.00;55844.97;5136529;27;20227;-72
2021/12/01 08:34:53;;;;;;;27.63;26.13;;;;;;;-141.02;100.00;55844.97;5136712;27;20227;-72
2021/12/01 08:37:22;;;;;;;27.90;26.40;;;;;;;-141.02;100.00;55844.97;5136386;27;20192;-72
2021/12/01 08:39:50;;;;;;;25.93;24.40;;;;;;;-141.02;100.00;55844.97;5136374;27;20576;-73
2021/12/01 08:42:19;;;;;;;25.63;24.13;;;;;;;-141.02;100.00;55844.97;5136588;27;20192;-72
2021/12/01 08:44:46;;;;;;;27.20;25.60;;;;;;;-141.02;100.00;55844.97;5136212;27;20256;-72
2021/12/01 08:47:13;;;;;;;24.97;23.53;;;;;;;-141.02;100.00;55844.97;5136463;27;20227;-73
2021/12/01 08:49:40;;;;;;;25.23;23.73;;;;;;;-141.02;100.00;55844.97;5135933;27;20713;-72
2021/12/01 08:52:07;;;;;;;24.33;22.93;;;;;;;-141.02;100.00;55844.97;5136143;27;20669;-71
2021/12/01 08:54:36;;;;;;;24.23;22.83;;;;;;;-141.02;100.00;55844.97;5136389;27;20231;-72
2021/12/01 08:57:04;;;;;;;24.60;23.17;;;;;;;-141.02;100.00;55844.97;5136038;27;20224;-72
2021/12/01 08:59:31;;;;;;;25.10;23.60;;;;;;;-141.02;100.00;55844.97;5135903;27;20228;-71
2021/12/01 09:02:00;;;;;;;24.20;22.70;;;;;;;-141.02;100.00;55844.97;5136241;27;20245;-72
2021/12/01 09:04:27;;;;;;;28.60;26.90;;;;;;;-141.02;100.00;55844.97;5136009;27;20223;-72
2021/12/01 09:06:54;;;;;;;24.50;23.00;;;;;;;-141.02;100.00;55844.97;5136127;27;20189;-72
2021/12/01 09:09:21;;;;;;;24.27;22.70;;;;;;;-141.02;100.00;55844.97;5136133;27;20249;-72
2021/12/01 09:11:52;;;;;;;24.20;22.70;;;;;;;-141.02;100.00;55844.97;5135771;27;20192;-72
2021/12/01 09:14:23;;;;;;;25.60;24.10;;;;;;;-141.02;100.00;55844.97;5135961;27;20742;-73
2021/12/01 09:16:52;;;;;;;24.50;23.00;;;;;;;-141.02;100.00;55844.97;5135618;27;20207;-73
2021/12/01 09:19:19;;;;;;;24.73;23.23;;;;;;;-141.02;100.00;55844.97;5135932;27;20200;-71
2021/12/01 09:21:47;;;;;;;26.20;24.60;;;;;;;-141.02;100.00;55844.97;5135824;27;20299;-72
2021/12/01 09:24:15;;;;;;;26.83;25.13;;;;;;;-141.02;100.00;55844.97;5135454;27;20309;-73
2021/12/01 09:26:43;;;;;;;29.93;27.70;;;;;;;-141.02;100.00;55844.97;5135692;27;20196;-73
2021/12/01 09:29:12;;;;;;;27.00;25.30;;;;;;;-141.02;100.00;55844.97;5135756;27;20193;-73
2021/12/01 09:31:39;;;;;;;24.07;22.47;;;;;;;-141.02;100.00;55844.97;5135647;27;20232;-74
2021/12/01 09:34:06;;;;;;;28.03;26.33;;;;;;;-141.02;100.00;55844.97;5135193;27;20241;-74
2021/12/01 09:36:33;;;;;;;27.53;25.83;;;;;;;-141.02;100.00;55844.97;5135612;27;20340;-73
2021/12/01 09:39:01;;;;;;;23.40;21.97;;;;;;;-141.02;100.00;55844.97;5135503;27;20237;-74
2021/12/01 09:41:29;;;;;;;22.20;20.80;;;;;;;-141.02;100.00;55844.97;5135468;27;20200;-75
2021/12/01 09:43:56;;;;;;;22.10;20.80;;;;;;;-141.02;100.00;55844.97;5135327;27;20231;-74
2021/12/01 09:46:26;;;;;;;25.83;24.13;;;;;;;-141.02;100.00;55844.97;5135329;27;20657;-74
2021/12/01 09:48:53;;;;;;;26.80;25.00;;;;;;;-141.02;100.00;55844.97;5134846;27;20601;-76
2021/12/01 09:51:21;;;;;;;25.50;23.70;;;;;;;-141.02;100.00;55844.97;5135280;27;20184;-77
2021/12/01 09:53:48;;;;;;;30.10;28.00;;;;;;;-141.02;100.00;55844.97;5134927;27;20668;-77
2021/12/01 09:56:15;;;;;;;26.87;25.03;;;;;;;-141.02;100.00;55844.97;5134795;27;20637;-75
2021/12/01 09:58:43;;;;;;;25.40;23.70;;;;;;;-141.02;100.00;55844.97;5134776;27;20574;-74
2021/12/01 10:01:16;;;;;;;23.73;22.13;;;;;;;-141.02;100.00;55844.97;5135581;27;20201;-74
2021/12/01 10:03:44;;;;;;;24.87;23.17;;;;;;;-141.02;100.00;55844.97;5135026;27;20276;-73
2021/12/01 10:06:13;;;;;;;25.10;23.40;;;;;;;-141.02;100.00;55844.97;5135034;27;20196;-82
2021/12/01 10:08:43;;;;;;;24.20;22.60;;;;;;;-141.02;100.00;55844.97;5135010;27;20275;-77
2021/12/01 10:11:11;;;;;;;25.10;23.40;;;;;;;-141.02;100.00;55844.97;5134683;27;20731;-79
2021/12/01 10:13:42;;;;;;;23.97;22.37;;;;;;;-141.02;100.00;55844.97;5135369;27;20197;-81
2021/12/01 10:16:11;;;;;;;23.50;21.90;;;;;;;-141.02;100.00;55844.97;5134565;27;20197;-78
2021/12/01 10:18:41;;;;;;;24.47;22.77;;;;;;;-141.02;100.00;55844.97;5134836;27;20664;-80
2021/12/01 10:21:13;;;;;;;24.73;23.03;;;;;;;-141.02;100.00;55844.97;5134801;27;20258;-76
2021/12/01 10:23:44;;;;;;;24.50;22.90;;;;;;;-141.02;100.00;55844.97;5134277;27;20216;-81
2021/12/01 10:26:18;;;;;;;24.80;23.10;;;;;;;-141.02;100.00;55844.97;5135845;27;20196;-83
2021/12/01 10:28:48;;;;;;;25.60;23.90;;;;;;;-141.02;100.00;55844.97;5135757;27;20187;-78
2021/12/01 10:31:16;;;;;;;23.27;21.67;;;;;;;-141.02;100.00;55844.97;5135007;27;20200;-84
2021/12/01 10:33:43;;;;;;;24.03;22.43;;;;;;;-141.02;100.00;55844.97;5134208;27;20781;-84
2021/12/01 10:36:12;;;;;;;22.90;21.40;;;;;;;-141.02;100.00;55844.97;5134428;27;20197;-81
2021/12/01 10:38:43;;;;;;;24.77;23.07;;;;;;;-141.02;100.00;55844.97;5134669;27;20196;-82
2021/12/01 10:41:13;;;;;;;23.70;22.20;;;;;;;-141.02;100.00;55844.97;5134727;27;20199;-86
2021/12/01 10:43:46;;;;;;;27.00;25.30;;;;;;;-141.02;100.00;55844.97;5133975;27;20276;-79
2021/12/01 10:46:15;;;;;;;25.50;23.80;;;;;;;-141.02;100.00;55844.97;5134212;27;20745;-84
2021/12/01 10:48:44;;;;;;;25.73;24.03;;;;;;;-141.02;100.00;55844.97;5133758;27;20193;-82
2021/12/01 10:51:32;;;;;;;25.97;24.27;;;;;;;-141.02;100.00;55844.97;5133837;27;20181;-82
2021/12/01 10:54:00;;;;;;;27.90;26.10;;;;;;;-141.02;100.00;55844.97;5134440;27;20657;-83
2021/12/01 10:56:28;;;;;;;28.90;27.00;;;;;;;-141.02;100.00;55844.97;5133597;27;20283;-78
2021/12/01 10:58:55;;;;;;;29.97;27.97;;;;;;;-141.02;100.00;55844.97;5133927;27;20204;-77
2021/12/01 11:01:24;;;;;;;28.73;26.73;;;;;;;-141.02;100.00;55844.97;5133895;27;20242;-76
2021/12/01 11:03:51;;;;;;;26.23;24.43;;;;;;;-141.02;100.00;55844.97;5133581;27;20196;-75